sensor_id;sensor_type;location;lat;lon;timestamp;P1;durP1;ratioP1;P2;durP2;ratioP2
76475;SDS011;65308;50.078;14.854;2023-08-06T00:02:12;6.00;;;4.22;;
76475;SDS011;65308;50.078;14.854;2023-08-06T00:04:39;5.70;;;3.80;;
76475;SDS011;65308;50.078;14.854;2023-08-06T00:07:08;6.07;;;3.92;;
76475;SDS011;65308;50.078;14.854;2023-08-06T00:09:34;7.15;;;4.15;;
76475;SDS011;65308;50.078;14.854;2023-08-06T00:12:01;5.78;;;4.00;;
76475;SDS011;65308;50.078;14.854;2023-08-06T00:14:34;6.13;;;4.10;;
76475;SDS011;65308;50.078;14.854;2023-08-06T00:17:01;6.10;;;3.88;;
76475;SDS011;65308;50.078;14.854;2023-08-06T00:19:30;6.20;;;3.70;;
76475;SDS011;65308;50.078;14.854;2023-08-06T00:21:57;5.65;;;3.88;;
76475;SDS011;65308;50.078;14.854;2023-08-06T00:24:26;5.22;;;3.30;;
76475;SDS011;65308;50.078;14.854;2023-08-06T00:26:52;5.50;;;3.63;;
76475;SDS011;65308;50.078;14.854;2023-08-06T00:29:19;7.03;;;4.13;;
76475;SDS011;65308;50.078;14.854;2023-08-06T00:31:45;4.78;;;3.58;;
76475;SDS011;65308;50.078;14.854;2023-08-06T00:34:12;6.03;;;3.83;;
76475;SDS011;65308;50.078;14.854;2023-08-06T00:36:39;6.32;;;4.00;;
76475;SDS011;65308;50.078;14.854;2023-08-06T00:39:05;5.95;;;3.80;;
76475;SDS011;65308;50.078;14.854;2023-08-06T00:41:34;6.10;;;4.00;;
76475;SDS011;65308;50.078;14.854;2023-08-06T00:44:01;5.90;;;3.72;;
76475;SDS011;65308;50.078;14.854;2023-08-06T00:46:28;6.78;;;4.18;;
76475;SDS011;65308;50.078;14.854;2023-08-06T00:48:55;5.47;;;3.55;;
76475;SDS011;65308;50.078;14.854;2023-08-06T00:51:22;8.20;;;3.85;;
76475;SDS011;65308;50.078;14.854;2023-08-06T00:53:51;6.13;;;3.42;;
76475;SDS011;65308;50.078;14.854;2023-08-06T00:56:18;5.75;;;3.95;;
76475;SDS011;65308;50.078;14.854;2023-08-06T00:58:46;6.70;;;4.20;;
76475;SDS011;65308;50.078;14.854;2023-08-06T01:01:13;5.97;;;3.88;;
76475;SDS011;65308;50.078;14.854;2023-08-06T01:03:40;7.05;;;4.50;;
76475;SDS011;65308;50.078;14.854;2023-08-06T01:06:06;7.25;;;4.20;;
76475;SDS011;65308;50.078;14.854;2023-08-06T01:08:35;7.10;;;4.32;;
76475;SDS011;65308;50.078;14.854;2023-08-06T01:11:14;6.43;;;4.43;;
76475;SDS011;65308;50.078;14.854;2023-08-06T01:14:02;5.32;;;3.67;;
76475;SDS011;65308;50.078;14.854;2023-08-06T01:16:32;5.43;;;3.72;;
76475;SDS011;65308;50.078;14.854;2023-08-06T01:18:59;5.25;;;3.45;;
76475;SDS011;65308;50.078;14.854;2023-08-06T01:21:27;6.70;;;4.07;;
76475;SDS011;65308;50.078;14.854;2023-08-06T01:23:54;5.65;;;3.85;;
76475;SDS011;65308;50.078;14.854;2023-08-06T01:26:22;5.30;;;3.72;;
76475;SDS011;65308;50.078;14.854;2023-08-06T01:28:54;7.55;;;4.28;;
76475;SDS011;65308;50.078;14.854;2023-08-06T01:31:26;6.63;;;3.70;;
76475;SDS011;65308;50.078;14.854;2023-08-06T01:33:54;5.63;;;4.07;;
76475;SDS011;65308;50.078;14.854;2023-08-06T01:36:22;5.25;;;3.65;;
76475;SDS011;65308;50.078;14.854;2023-08-06T01:38:52;5.78;;;3.72;;
76475;SDS011;65308;50.078;14.854;2023-08-06T01:41:19;5.45;;;3.92;;
76475;SDS011;65308;50.078;14.854;2023-08-06T01:43:45;5.13;;;3.80;;
76475;SDS011;65308;50.078;14.854;2023-08-06T01:46:12;8.35;;;4.00;;
76475;SDS011;65308;50.078;14.854;2023-08-06T01:48:39;5.22;;;3.60;;
76475;SDS011;65308;50.078;14.854;2023-08-06T01:51:05;6.03;;;3.53;;
76475;SDS011;65308;50.078;14.854;2023-08-06T01:53:32;6.15;;;3.50;;
76475;SDS011;65308;50.078;14.854;2023-08-06T01:56:01;5.50;;;3.60;;
76475;SDS011;65308;50.078;14.854;2023-08-06T01:58:28;5.03;;;3.42;;
76475;SDS011;65308;50.078;14.854;2023-08-06T02:00:54;5.07;;;3.60;;
76475;SDS011;65308;50.078;14.854;2023-08-06T02:03:21;6.05;;;3.92;;
76475;SDS011;65308;50.078;14.854;2023-08-06T02:05:47;5.75;;;3.80;;
76475;SDS011;65308;50.078;14.854;2023-08-06T02:08:14;7.07;;;4.20;;
76475;SDS011;65308;50.078;14.854;2023-08-06T02:10:41;6.50;;;3.92;;
76475;SDS011;65308;50.078;14.854;2023-08-06T02:13:09;5.80;;;3.55;;
76475;SDS011;65308;50.078;14.854;2023-08-06T02:15:35;7.43;;;3.70;;
76475;SDS011;65308;50.078;14.854;2023-08-06T02:18:07;4.85;;;3.35;;
76475;SDS011;65308;50.078;14.854;2023-08-06T02:20:34;6.00;;;3.20;;
76475;SDS011;65308;50.078;14.854;2023-08-06T02:23:00;6.72;;;3.38;;
76475;SDS011;65308;50.078;14.854;2023-08-06T02:25:27;5.00;;;3.20;;
76475;SDS011;65308;50.078;14.854;2023-08-06T02:27:53;4.68;;;3.00;;
76475;SDS011;65308;50.078;14.854;2023-08-06T02:30:21;5.40;;;2.95;;
76475;SDS011;65308;50.078;14.854;2023-08-06T02:32:48;4.97;;;3.10;;
76475;SDS011;65308;50.078;14.854;2023-08-06T02:35:15;5.10;;;2.95;;
76475;SDS011;65308;50.078;14.854;2023-08-06T02:37:41;5.57;;;2.92;;
76475;SDS011;65308;50.078;14.854;2023-08-06T02:40:08;4.47;;;2.85;;
76475;SDS011;65308;50.078;14.854;2023-08-06T02:42:35;4.28;;;2.58;;
76475;SDS011;65308;50.078;14.854;2023-08-06T02:45:02;4.80;;;2.90;;
76475;SDS011;65308;50.078;14.854;2023-08-06T02:47:31;4.82;;;2.80;;
76475;SDS011;65308;50.078;14.854;2023-08-06T02:49:58;5.32;;;2.88;;
76475;SDS011;65308;50.078;14.854;2023-08-06T02:52:24;3.97;;;2.70;;
76475;SDS011;65308;50.078;14.854;2023-08-06T02:54:51;4.15;;;2.63;;
76475;SDS011;65308;50.078;14.854;2023-08-06T02:57:17;5.10;;;2.88;;
76475;SDS011;65308;50.078;14.854;2023-08-06T02:59:44;4.47;;;2.60;;
76475;SDS011;65308;50.078;14.854;2023-08-06T03:02:11;6.00;;;2.90;;
76475;SDS011;65308;50.078;14.854;2023-08-06T03:04:39;5.00;;;2.80;;
76475;SDS011;65308;50.078;14.854;2023-08-06T03:07:05;5.22;;;2.78;;
76475;SDS011;65308;50.078;14.854;2023-08-06T03:09:32;4.72;;;2.90;;
76475;SDS011;65308;50.078;14.854;2023-08-06T03:11:59;3.90;;;2.50;;
76475;SDS011;65308;50.078;14.854;2023-08-06T03:14:25;6.15;;;2.72;;
76475;SDS011;65308;50.078;14.854;2023-08-06T03:16:52;3.80;;;2.60;;
76475;SDS011;65308;50.078;14.854;2023-08-06T03:19:18;5.53;;;2.80;;
76475;SDS011;65308;50.078;14.854;2023-08-06T03:21:46;3.78;;;2.63;;
76475;SDS011;65308;50.078;14.854;2023-08-06T03:24:13;4.10;;;2.60;;
76475;SDS011;65308;50.078;14.854;2023-08-06T03:26:40;3.85;;;2.67;;
76475;SDS011;65308;50.078;14.854;2023-08-06T03:29:06;4.80;;;2.60;;
76475;SDS011;65308;50.078;14.854;2023-08-06T03:31:33;3.75;;;2.50;;
76475;SDS011;65308;50.078;14.854;2023-08-06T03:33:59;3.97;;;2.60;;
76475;SDS011;65308;50.078;14.854;2023-08-06T03:36:26;3.83;;;2.30;;
76475;SDS011;65308;50.078;14.854;2023-08-06T03:38:54;3.92;;;2.25;;
76475;SDS011;65308;50.078;14.854;2023-08-06T03:41:21;3.22;;;2.05;;
76475;SDS011;65308;50.078;14.854;2023-08-06T03:43:47;4.57;;;2.22;;
76475;SDS011;65308;50.078;14.854;2023-08-06T03:46:14;3.83;;;2.15;;
76475;SDS011;65308;50.078;14.854;2023-08-06T03:48:41;3.78;;;2.03;;
76475;SDS011;65308;50.078;14.854;2023-08-06T03:51:07;3.60;;;2.22;;
76475;SDS011;65308;50.078;14.854;2023-08-06T03:53:34;4.15;;;2.45;;
76475;SDS011;65308;50.078;14.854;2023-08-06T03:56:02;3.80;;;2.38;;
76475;SDS011;65308;50.078;14.854;2023-08-06T03:58:29;4.05;;;2.70;;
76475;SDS011;65308;50.078;14.854;2023-08-06T04:00:58;3.80;;;2.42;;
76475;SDS011;65308;50.078;14.854;2023-08-06T04:03:26;5.05;;;2.78;;
76475;SDS011;65308;50.078;14.854;2023-08-06T04:05:52;4.05;;;2.70;;
76475;SDS011;65308;50.078;14.854;2023-08-06T04:08:20;4.57;;;2.60;;
76475;SDS011;65308;50.078;14.854;2023-08-06T04:10:48;4.28;;;2.53;;
76475;SDS011;65308;50.078;14.854;2023-08-06T04:13:17;5.00;;;3.10;;
76475;SDS011;65308;50.078;14.854;2023-08-06T04:15:43;4.57;;;3.05;;
76475;SDS011;65308;50.078;14.854;2023-08-06T04:18:10;4.38;;;2.63;;
76475;SDS011;65308;50.078;14.854;2023-08-06T04:20:42;4.72;;;3.03;;
76475;SDS011;65308;50.078;14.854;2023-08-06T04:23:11;4.60;;;3.13;;
76475;SDS011;65308;50.078;14.854;2023-08-06T04:25:38;5.70;;;3.17;;
76475;SDS011;65308;50.078;14.854;2023-08-06T04:28:05;4.57;;;3.10;;
76475;SDS011;65308;50.078;14.854;2023-08-06T04:30:34;5.28;;;3.22;;
76475;SDS011;65308;50.078;14.854;2023-08-06T04:33:03;6.00;;;3.85;;
76475;SDS011;65308;50.078;14.854;2023-08-06T04:35:29;5.05;;;3.20;;
76475;SDS011;65308;50.078;14.854;2023-08-06T04:37:56;4.38;;;2.97;;
76475;SDS011;65308;50.078;14.854;2023-08-06T04:40:23;5.07;;;3.00;;
76475;SDS011;65308;50.078;14.854;2023-08-06T04:42:49;4.50;;;2.90;;
76475;SDS011;65308;50.078;14.854;2023-08-06T04:45:16;5.28;;;2.83;;
76475;SDS011;65308;50.078;14.854;2023-08-06T04:47:44;5.68;;;2.78;;
76475;SDS011;65308;50.078;14.854;2023-08-06T04:50:10;4.35;;;2.70;;
76475;SDS011;65308;50.078;14.854;2023-08-06T04:52:37;4.07;;;2.72;;
76475;SDS011;65308;50.078;14.854;2023-08-06T04:55:04;4.20;;;2.38;;
76475;SDS011;65308;50.078;14.854;2023-08-06T04:57:31;5.40;;;2.53;;
76475;SDS011;65308;50.078;14.854;2023-08-06T04:59:57;2.90;;;2.00;;
76475;SDS011;65308;50.078;14.854;2023-08-06T05:02:24;3.40;;;2.22;;
76475;SDS011;65308;50.078;14.854;2023-08-06T05:04:52;3.55;;;2.30;;
76475;SDS011;65308;50.078;14.854;2023-08-06T05:07:19;3.75;;;2.40;;
76475;SDS011;65308;50.078;14.854;2023-08-06T05:09:45;3.30;;;2.00;;
76475;SDS011;65308;50.078;14.854;2023-08-06T05:12:12;3.50;;;2.42;;
76475;SDS011;65308;50.078;14.854;2023-08-06T05:14:38;3.55;;;2.30;;
76475;SDS011;65308;50.078;14.854;2023-08-06T05:17:05;3.85;;;2.17;;
76475;SDS011;65308;50.078;14.854;2023-08-06T05:19:32;3.70;;;2.22;;
76475;SDS011;65308;50.078;14.854;2023-08-06T05:22:00;3.03;;;2.20;;
76475;SDS011;65308;50.078;14.854;2023-08-06T05:24:27;3.80;;;2.20;;
76475;SDS011;65308;50.078;14.854;2023-08-06T05:26:53;3.60;;;2.22;;
76475;SDS011;65308;50.078;14.854;2023-08-06T05:29:20;3.20;;;1.90;;
76475;SDS011;65308;50.078;14.854;2023-08-06T05:31:47;3.60;;;2.13;;
76475;SDS011;65308;50.078;14.854;2023-08-06T05:34:13;3.70;;;2.10;;
76475;SDS011;65308;50.078;14.854;2023-08-06T05:36:40;3.78;;;2.10;;
76475;SDS011;65308;50.078;14.854;2023-08-06T05:39:08;3.45;;;2.17;;
76475;SDS011;65308;50.078;14.854;2023-08-06T05:41:34;3.90;;;2.40;;
76475;SDS011;65308;50.078;14.854;2023-08-06T05:44:01;3.42;;;2.15;;
76475;SDS011;65308;50.078;14.854;2023-08-06T05:46:27;3.38;;;2.20;;
76475;SDS011;65308;50.078;14.854;2023-08-06T05:48:54;2.85;;;1.77;;
76475;SDS011;65308;50.078;14.854;2023-08-06T05:51:21;4.00;;;2.03;;
76475;SDS011;65308;50.078;14.854;2023-08-06T05:53:47;4.45;;;2.17;;
76475;SDS011;65308;50.078;14.854;2023-08-06T05:56:18;4.13;;;2.20;;
76475;SDS011;65308;50.078;14.854;2023-08-06T05:58:45;3.50;;;2.22;;
76475;SDS011;65308;50.078;14.854;2023-08-06T06:03:39;3.95;;;2.67;;
76475;SDS011;65308;50.078;14.854;2023-08-06T06:06:05;3.63;;;2.33;;
76475;SDS011;65308;50.078;14.854;2023-08-06T06:08:32;4.78;;;2.55;;
76475;SDS011;65308;50.078;14.854;2023-08-06T06:10:59;4.22;;;2.47;;
76475;SDS011;65308;50.078;14.854;2023-08-06T06:13:27;3.85;;;2.17;;
76475;SDS011;65308;50.078;14.854;2023-08-06T06:15:54;4.00;;;2.60;;
76475;SDS011;65308;50.078;14.854;2023-08-06T06:18:21;3.85;;;2.55;;
76475;SDS011;65308;50.078;14.854;2023-08-06T06:20:50;4.30;;;2.42;;
76475;SDS011;65308;50.078;14.854;2023-08-06T06:23:16;4.05;;;2.50;;
76475;SDS011;65308;50.078;14.854;2023-08-06T06:25:43;4.38;;;2.72;;
76475;SDS011;65308;50.078;14.854;2023-08-06T06:28:12;4.07;;;2.67;;
76475;SDS011;65308;50.078;14.854;2023-08-06T06:30:41;4.30;;;2.70;;
76475;SDS011;65308;50.078;14.854;2023-08-06T06:33:08;4.72;;;2.80;;
76475;SDS011;65308;50.078;14.854;2023-08-06T06:35:35;5.55;;;3.17;;
76475;SDS011;65308;50.078;14.854;2023-08-06T06:38:03;5.00;;;2.83;;
76475;SDS011;65308;50.078;14.854;2023-08-06T06:40:30;4.57;;;2.72;;
76475;SDS011;65308;50.078;14.854;2023-08-06T06:42:58;4.35;;;2.83;;
76475;SDS011;65308;50.078;14.854;2023-08-06T06:45:24;3.42;;;2.45;;
76475;SDS011;65308;50.078;14.854;2023-08-06T06:47:52;4.18;;;2.63;;
76475;SDS011;65308;50.078;14.854;2023-08-06T06:50:19;4.72;;;2.75;;
76475;SDS011;65308;50.078;14.854;2023-08-06T06:52:47;4.03;;;2.70;;
76475;SDS011;65308;50.078;14.854;2023-08-06T06:55:13;4.53;;;2.90;;
76475;SDS011;65308;50.078;14.854;2023-08-06T06:57:40;4.75;;;2.80;;
76475;SDS011;65308;50.078;14.854;2023-08-06T07:00:07;4.38;;;2.90;;
76475;SDS011;65308;50.078;14.854;2023-08-06T07:02:34;6.15;;;2.72;;
76475;SDS011;65308;50.078;14.854;2023-08-06T07:05:02;4.43;;;2.83;;
76475;SDS011;65308;50.078;14.854;2023-08-06T07:07:29;5.05;;;3.10;;
76475;SDS011;65308;50.078;14.854;2023-08-06T07:09:56;5.18;;;3.00;;
76475;SDS011;65308;50.078;14.854;2023-08-06T07:12:23;4.97;;;2.90;;
76475;SDS011;65308;50.078;14.854;2023-08-06T07:14:49;5.40;;;3.58;;
76475;SDS011;65308;50.078;14.854;2023-08-06T07:17:16;5.68;;;3.53;;
76475;SDS011;65308;50.078;14.854;2023-08-06T07:19:43;5.32;;;3.47;;
76475;SDS011;65308;50.078;14.854;2023-08-06T07:22:11;5.63;;;3.30;;
76475;SDS011;65308;50.078;14.854;2023-08-06T07:24:38;5.50;;;3.22;;
76475;SDS011;65308;50.078;14.854;2023-08-06T07:27:05;4.68;;;3.20;;
76475;SDS011;65308;50.078;14.854;2023-08-06T07:29:32;5.55;;;3.30;;
76475;SDS011;65308;50.078;14.854;2023-08-06T07:31:58;5.18;;;3.42;;
76475;SDS011;65308;50.078;14.854;2023-08-06T07:34:25;4.25;;;2.75;;
76475;SDS011;65308;50.078;14.854;2023-08-06T07:36:52;4.72;;;3.30;;
76475;SDS011;65308;50.078;14.854;2023-08-06T07:39:20;6.95;;;3.25;;
76475;SDS011;65308;50.078;14.854;2023-08-06T07:41:48;5.00;;;2.95;;
76475;SDS011;65308;50.078;14.854;2023-08-06T07:44:18;5.25;;;3.55;;
76475;SDS011;65308;50.078;14.854;2023-08-06T07:46:44;5.60;;;3.50;;
76475;SDS011;65308;50.078;14.854;2023-08-06T07:49:11;5.05;;;3.38;;
76475;SDS011;65308;50.078;14.854;2023-08-06T07:51:38;5.47;;;3.40;;
76475;SDS011;65308;50.078;14.854;2023-08-06T07:54:05;5.88;;;3.30;;
76475;SDS011;65308;50.078;14.854;2023-08-06T07:56:33;4.60;;;3.10;;
76475;SDS011;65308;50.078;14.854;2023-08-06T07:59:01;4.22;;;2.70;;
76475;SDS011;65308;50.078;14.854;2023-08-06T08:01:28;4.47;;;3.15;;
76475;SDS011;65308;50.078;14.854;2023-08-06T08:03:55;4.78;;;2.90;;
76475;SDS011;65308;50.078;14.854;2023-08-06T08:06:22;5.25;;;3.03;;
76475;SDS011;65308;50.078;14.854;2023-08-06T08:08:49;4.15;;;2.60;;
76475;SDS011;65308;50.078;14.854;2023-08-06T08:11:17;4.85;;;2.80;;
76475;SDS011;65308;50.078;14.854;2023-08-06T08:13:45;4.57;;;2.78;;
76475;SDS011;65308;50.078;14.854;2023-08-06T08:16:12;4.57;;;2.70;;
76475;SDS011;65308;50.078;14.854;2023-08-06T08:18:38;5.70;;;3.10;;
76475;SDS011;65308;50.078;14.854;2023-08-06T08:21:05;4.80;;;2.92;;
76475;SDS011;65308;50.078;14.854;2023-08-06T08:23:32;3.95;;;2.53;;
76475;SDS011;65308;50.078;14.854;2023-08-06T08:25:59;4.13;;;2.70;;
76475;SDS011;65308;50.078;14.854;2023-08-06T08:28:27;4.32;;;2.88;;
76475;SDS011;65308;50.078;14.854;2023-08-06T08:30:56;5.28;;;2.92;;
76475;SDS011;65308;50.078;14.854;2023-08-06T08:33:22;3.80;;;2.90;;
76475;SDS011;65308;50.078;14.854;2023-08-06T08:35:49;3.97;;;2.67;;
76475;SDS011;65308;50.078;14.854;2023-08-06T08:38:17;4.78;;;2.70;;
76475;SDS011;65308;50.078;14.854;2023-08-06T08:40:46;5.97;;;2.83;;
76475;SDS011;65308;50.078;14.854;2023-08-06T08:43:18;5.22;;;2.97;;
76475;SDS011;65308;50.078;14.854;2023-08-06T08:45:54;4.50;;;2.97;;
76475;SDS011;65308;50.078;14.854;2023-08-06T08:48:30;4.93;;;3.50;;
76475;SDS011;65308;50.078;14.854;2023-08-06T08:50:57;5.95;;;3.50;;
76475;SDS011;65308;50.078;14.854;2023-08-06T08:53:25;5.05;;;3.17;;
76475;SDS011;65308;50.078;14.854;2023-08-06T08:55:57;6.05;;;3.60;;
76475;SDS011;65308;50.078;14.854;2023-08-06T08:58:26;5.88;;;3.78;;
76475;SDS011;65308;50.078;14.854;2023-08-06T09:00:52;5.65;;;3.90;;
76475;SDS011;65308;50.078;14.854;2023-08-06T09:03:21;5.68;;;3.70;;
76475;SDS011;65308;50.078;14.854;2023-08-06T09:05:51;6.07;;;3.70;;
76475;SDS011;65308;50.078;14.854;2023-08-06T09:08:21;5.68;;;3.70;;
76475;SDS011;65308;50.078;14.854;2023-08-06T09:10:52;7.47;;;4.57;;
76475;SDS011;65308;50.078;14.854;2023-08-06T09:13:20;6.07;;;4.50;;
76475;SDS011;65308;50.078;14.854;2023-08-06T09:15:48;6.38;;;4.43;;
76475;SDS011;65308;50.078;14.854;2023-08-06T09:18:21;7.47;;;4.40;;
76475;SDS011;65308;50.078;14.854;2023-08-06T09:20:54;7.22;;;5.40;;
76475;SDS011;65308;50.078;14.854;2023-08-06T09:23:20;7.43;;;4.88;;
76475;SDS011;65308;50.078;14.854;2023-08-06T09:25:53;8.30;;;4.88;;
76475;SDS011;65308;50.078;14.854;2023-08-06T09:28:19;6.88;;;5.15;;
76475;SDS011;65308;50.078;14.854;2023-08-06T09:30:47;6.80;;;5.13;;
76475;SDS011;65308;50.078;14.854;2023-08-06T09:33:14;6.25;;;4.40;;
76475;SDS011;65308;50.078;14.854;2023-08-06T09:35:46;6.57;;;4.68;;
76475;SDS011;65308;50.078;14.854;2023-08-06T09:38:13;6.97;;;5.20;;
76475;SDS011;65308;50.078;14.854;2023-08-06T09:44:01;10.80;;;5.50;;
76475;SDS011;65308;50.078;14.854;2023-08-06T09:46:28;8.38;;;4.88;;
76475;SDS011;65308;50.078;14.854;2023-08-06T09:48:54;6.38;;;4.50;;
76475;SDS011;65308;50.078;14.854;2023-08-06T09:51:23;7.25;;;5.13;;
76475;SDS011;65308;50.078;14.854;2023-08-06T09:53:49;7.50;;;5.18;;
76475;SDS011;65308;50.078;14.854;2023-08-06T09:56:17;7.55;;;5.65;;
76475;SDS011;65308;50.078;14.854;2023-08-06T09:58:44;7.70;;;5.45;;
76475;SDS011;65308;50.078;14.854;2023-08-06T10:01:13;5.70;;;4.57;;
76475;SDS011;65308;50.078;14.854;2023-08-06T10:03:41;6.32;;;4.93;;
76475;SDS011;65308;50.078;14.854;2023-08-06T10:06:09;7.50;;;4.78;;
76475;SDS011;65308;50.078;14.854;2023-08-06T10:08:38;5.68;;;4.43;;
76475;SDS011;65308;50.078;14.854;2023-08-06T10:11:07;6.55;;;4.88;;
76475;SDS011;65308;50.078;14.854;2023-08-06T10:13:35;6.65;;;4.70;;
76475;SDS011;65308;50.078;14.854;2023-08-06T10:16:03;6.07;;;4.78;;
76475;SDS011;65308;50.078;14.854;2023-08-06T10:18:31;5.55;;;4.68;;
76475;SDS011;65308;50.078;14.854;2023-08-06T10:20:59;5.82;;;3.95;;
76475;SDS011;65308;50.078;14.854;2023-08-06T10:23:32;5.32;;;3.90;;
76475;SDS011;65308;50.078;14.854;2023-08-06T10:26:01;5.55;;;4.10;;
76475;SDS011;65308;50.078;14.854;2023-08-06T10:28:33;5.90;;;4.15;;
76475;SDS011;65308;50.078;14.854;2023-08-06T10:31:01;6.07;;;4.10;;
76475;SDS011;65308;50.078;14.854;2023-08-06T10:33:39;4.95;;;3.70;;
76475;SDS011;65308;50.078;14.854;2023-08-06T10:36:08;4.72;;;3.70;;
76475;SDS011;65308;50.078;14.854;2023-08-06T10:41:14;5.85;;;3.65;;
76475;SDS011;65308;50.078;14.854;2023-08-06T10:43:42;5.18;;;3.63;;
76475;SDS011;65308;50.078;14.854;2023-08-06T10:46:10;4.63;;;3.40;;
76475;SDS011;65308;50.078;14.854;2023-08-06T10:51:07;4.75;;;3.30;;
76475;SDS011;65308;50.078;14.854;2023-08-06T10:53:34;4.95;;;3.60;;
76475;SDS011;65308;50.078;14.854;2023-08-06T10:56:01;5.07;;;3.42;;
76475;SDS011;65308;50.078;14.854;2023-08-06T10:58:32;5.18;;;3.45;;
76475;SDS011;65308;50.078;14.854;2023-08-06T11:01:01;4.13;;;3.63;;
76475;SDS011;65308;50.078;14.854;2023-08-06T11:03:28;4.57;;;3.40;;
76475;SDS011;65308;50.078;14.854;2023-08-06T11:05:55;6.22;;;3.15;;
76475;SDS011;65308;50.078;14.854;2023-08-06T11:08:25;5.43;;;3.63;;
76475;SDS011;65308;50.078;14.854;2023-08-06T11:10:51;5.28;;;3.38;;
76475;SDS011;65308;50.078;14.854;2023-08-06T11:13:18;5.97;;;3.20;;
76475;SDS011;65308;50.078;14.854;2023-08-06T11:15:47;4.43;;;3.63;;
76475;SDS011;65308;50.078;14.854;2023-08-06T11:18:13;4.93;;;3.97;;
76475;SDS011;65308;50.078;14.854;2023-08-06T11:20:40;4.57;;;3.55;;
76475;SDS011;65308;50.078;14.854;2023-08-06T11:23:09;4.88;;;3.53;;
76475;SDS011;65308;50.078;14.854;2023-08-06T11:25:37;4.85;;;3.53;;
76475;SDS011;65308;50.078;14.854;2023-08-06T11:30:37;5.28;;;4.05;;
76475;SDS011;65308;50.078;14.854;2023-08-06T11:33:06;5.25;;;3.95;;
76475;SDS011;65308;50.078;14.854;2023-08-06T11:35:34;5.45;;;3.85;;
76475;SDS011;65308;50.078;14.854;2023-08-06T11:38:01;7.22;;;3.72;;
76475;SDS011;65308;50.078;14.854;2023-08-06T11:40:28;4.82;;;3.58;;
76475;SDS011;65308;50.078;14.854;2023-08-06T11:42:55;5.90;;;3.97;;
76475;SDS011;65308;50.078;14.854;2023-08-06T11:45:22;5.63;;;3.42;;
76475;SDS011;65308;50.078;14.854;2023-08-06T11:47:50;3.92;;;2.92;;
76475;SDS011;65308;50.078;14.854;2023-08-06T11:50:23;4.40;;;3.10;;
76475;SDS011;65308;50.078;14.854;2023-08-06T11:52:52;4.50;;;3.00;;
76475;SDS011;65308;50.078;14.854;2023-08-06T11:55:22;5.30;;;3.13;;
76475;SDS011;65308;50.078;14.854;2023-08-06T11:57:49;4.03;;;3.22;;
76475;SDS011;65308;50.078;14.854;2023-08-06T12:00:16;4.28;;;3.40;;
76475;SDS011;65308;50.078;14.854;2023-08-06T12:02:45;4.20;;;3.10;;
76475;SDS011;65308;50.078;14.854;2023-08-06T12:05:14;4.47;;;3.17;;
76475;SDS011;65308;50.078;14.854;2023-08-06T12:07:43;5.47;;;2.92;;
76475;SDS011;65308;50.078;14.854;2023-08-06T12:10:11;4.32;;;3.00;;
76475;SDS011;65308;50.078;14.854;2023-08-06T12:12:39;4.95;;;3.00;;
76475;SDS011;65308;50.078;14.854;2023-08-06T12:15:06;4.28;;;3.08;;
76475;SDS011;65308;50.078;14.854;2023-08-06T12:17:34;3.55;;;2.83;;
76475;SDS011;65308;50.078;14.854;2023-08-06T12:20:00;4.07;;;2.70;;
76475;SDS011;65308;50.078;14.854;2023-08-06T12:22:29;5.75;;;2.80;;
76475;SDS011;65308;50.078;14.854;2023-08-06T12:25:01;3.63;;;2.72;;
76475;SDS011;65308;50.078;14.854;2023-08-06T12:27:28;3.80;;;2.40;;
76475;SDS011;65308;50.078;14.854;2023-08-06T12:29:55;3.30;;;2.38;;
76475;SDS011;65308;50.078;14.854;2023-08-06T12:32:22;4.22;;;2.30;;
76475;SDS011;65308;50.078;14.854;2023-08-06T12:34:49;3.25;;;2.25;;
76475;SDS011;65308;50.078;14.854;2023-08-06T12:37:16;3.25;;;2.22;;
76475;SDS011;65308;50.078;14.854;2023-08-06T12:39:43;3.38;;;2.40;;
76475;SDS011;65308;50.078;14.854;2023-08-06T12:42:11;3.40;;;2.08;;
76475;SDS011;65308;50.078;14.854;2023-08-06T12:44:38;3.00;;;2.03;;
76475;SDS011;65308;50.078;14.854;2023-08-06T12:47:04;3.40;;;1.90;;
76475;SDS011;65308;50.078;14.854;2023-08-06T12:49:31;2.80;;;1.98;;
76475;SDS011;65308;50.078;14.854;2023-08-06T12:51:58;2.78;;;1.98;;
76475;SDS011;65308;50.078;14.854;2023-08-06T12:54:26;4.35;;;2.30;;
76475;SDS011;65308;50.078;14.854;2023-08-06T12:56:53;3.50;;;2.30;;
76475;SDS011;65308;50.078;14.854;2023-08-06T12:59:21;3.38;;;2.10;;
76475;SDS011;65308;50.078;14.854;2023-08-06T13:01:48;3.25;;;2.17;;
76475;SDS011;65308;50.078;14.854;2023-08-06T13:04:15;3.28;;;2.30;;
76475;SDS011;65308;50.078;14.854;2023-08-06T13:06:42;2.95;;;2.00;;
76475;SDS011;65308;50.078;14.854;2023-08-06T13:09:09;3.60;;;2.50;;
76475;SDS011;65308;50.078;14.854;2023-08-06T13:11:36;3.22;;;2.30;;
76475;SDS011;65308;50.078;14.854;2023-08-06T13:14:04;3.75;;;2.30;;
76475;SDS011;65308;50.078;14.854;2023-08-06T13:16:36;3.83;;;2.42;;
76475;SDS011;65308;50.078;14.854;2023-08-06T13:19:04;4.05;;;2.10;;
76475;SDS011;65308;50.078;14.854;2023-08-06T13:21:33;3.92;;;2.40;;
76475;SDS011;65308;50.078;14.854;2023-08-06T13:24:00;3.13;;;2.20;;
76475;SDS011;65308;50.078;14.854;2023-08-06T13:26:28;3.53;;;2.30;;
76475;SDS011;65308;50.078;14.854;2023-08-06T13:28:54;3.63;;;2.20;;
76475;SDS011;65308;50.078;14.854;2023-08-06T13:31:23;4.28;;;2.30;;
76475;SDS011;65308;50.078;14.854;2023-08-06T13:33:52;3.97;;;2.53;;
76475;SDS011;65308;50.078;14.854;2023-08-06T13:36:23;4.32;;;2.40;;
76475;SDS011;65308;50.078;14.854;2023-08-06T13:38:49;3.67;;;2.50;;
76475;SDS011;65308;50.078;14.854;2023-08-06T13:41:16;3.47;;;2.45;;
76475;SDS011;65308;50.078;14.854;2023-08-06T13:43:43;3.97;;;2.45;;
76475;SDS011;65308;50.078;14.854;2023-08-06T13:46:10;3.63;;;2.42;;
76475;SDS011;65308;50.078;14.854;2023-08-06T13:48:41;3.83;;;2.53;;
76475;SDS011;65308;50.078;14.854;2023-08-06T13:51:09;3.80;;;2.60;;
76475;SDS011;65308;50.078;14.854;2023-08-06T13:53:36;3.35;;;2.30;;
76475;SDS011;65308;50.078;14.854;2023-08-06T13:56:03;3.60;;;2.42;;
76475;SDS011;65308;50.078;14.854;2023-08-06T14:00:57;3.50;;;2.63;;
76475;SDS011;65308;50.078;14.854;2023-08-06T14:03:23;3.35;;;2.17;;
76475;SDS011;65308;50.078;14.854;2023-08-06T14:05:50;4.07;;;2.30;;
76475;SDS011;65308;50.078;14.854;2023-08-06T14:08:19;3.50;;;2.28;;
76475;SDS011;65308;50.078;14.854;2023-08-06T14:10:46;3.22;;;2.40;;
76475;SDS011;65308;50.078;14.854;2023-08-06T14:13:13;2.88;;;2.17;;
76475;SDS011;65308;50.078;14.854;2023-08-06T14:15:39;3.45;;;2.50;;
76475;SDS011;65308;50.078;14.854;2023-08-06T14:18:06;5.35;;;2.22;;
76475;SDS011;65308;50.078;14.854;2023-08-06T14:20:34;4.05;;;2.33;;
76475;SDS011;65308;50.078;14.854;2023-08-06T14:23:01;3.28;;;2.42;;
76475;SDS011;65308;50.078;14.854;2023-08-06T14:25:29;3.75;;;2.60;;
76475;SDS011;65308;50.078;14.854;2023-08-06T14:27:56;3.92;;;2.42;;
76475;SDS011;65308;50.078;14.854;2023-08-06T14:30:23;4.18;;;2.60;;
76475;SDS011;65308;50.078;14.854;2023-08-06T14:32:50;4.60;;;2.60;;
76475;SDS011;65308;50.078;14.854;2023-08-06T14:35:17;4.68;;;2.88;;
76475;SDS011;65308;50.078;14.854;2023-08-06T14:37:43;3.72;;;2.45;;
76475;SDS011;65308;50.078;14.854;2023-08-06T14:40:11;4.20;;;2.50;;
76475;SDS011;65308;50.078;14.854;2023-08-06T14:42:39;4.93;;;2.60;;
76475;SDS011;65308;50.078;14.854;2023-08-06T14:45:06;3.58;;;2.50;;
76475;SDS011;65308;50.078;14.854;2023-08-06T14:47:33;3.75;;;2.55;;
76475;SDS011;65308;50.078;14.854;2023-08-06T14:49:59;4.50;;;3.10;;
76475;SDS011;65308;50.078;14.854;2023-08-06T14:52:26;4.50;;;2.80;;